createdAt,value
2023-03-26T00:04:42.906Z,5.20
2023-03-26T00:07:12.903Z,5.40
2023-03-26T00:09:41.853Z,5.60
2023-03-26T00:12:10.944Z,5.20
2023-03-26T00:14:41.133Z,4.90
2023-03-26T00:17:09.722Z,5.40
2023-03-26T00:19:38.436Z,5.10
2023-03-26T00:22:07.315Z,4.80
2023-03-26T00:24:37.795Z,4.60
2023-03-26T00:27:06.776Z,5.00
2023-03-26T00:29:36.034Z,4.90
2023-03-26T00:32:05.363Z,4.80
2023-03-26T00:34:34.768Z,5.80
2023-03-26T00:37:03.537Z,5.20
2023-03-26T00:39:33.922Z,5.10
2023-03-26T00:42:07.194Z,5.50
2023-03-26T00:44:36.112Z,5.10
2023-03-26T00:47:04.771Z,5.50
2023-03-26T00:49:34.045Z,5.60
2023-03-26T00:52:03.716Z,5.60
2023-03-26T00:54:32.529Z,5.30
2023-03-26T00:57:01.257Z,5.20
2023-03-26T00:59:30.749Z,5.00
2023-03-26T01:04:34.885Z,5.20
2023-03-26T01:07:12.975Z,6.30
2023-03-26T01:09:45.938Z,5.60
2023-03-26T01:12:17.294Z,5.10
2023-03-26T01:14:49.605Z,5.70
2023-03-26T01:17:19.534Z,5.40
2023-03-26T01:20:13.055Z,5.00
2023-03-26T01:22:47.754Z,4.90
2023-03-26T01:25:17.285Z,5.70
2023-03-26T01:30:42.849Z,5.40
2023-03-26T01:33:41.817Z,5.50
2023-03-26T01:36:32.730Z,5.60
2023-03-26T01:39:49.661Z,4.80
2023-03-26T01:43:05.676Z,4.70
2023-03-26T01:45:38.548Z,5.10
2023-03-26T01:48:07.906Z,5.60
2023-03-26T01:50:36.549Z,5.90
2023-03-26T01:53:06.402Z,5.20
2023-03-26T01:56:18.885Z,6.40
2023-03-26T01:59:30.661Z,5.70
2023-03-26T02:02:43.612Z,5.20
2023-03-26T02:06:06.511Z,5.80
2023-03-26T02:08:42.769Z,5.40
2023-03-26T02:11:16.476Z,5.30
2023-03-26T02:13:46.556Z,5.20
2023-03-26T02:16:17.625Z,5.70
2023-03-26T02:18:51.575Z,5.10
2023-03-26T02:21:23.366Z,5.40
2023-03-26T02:24:03.376Z,4.70
2023-03-26T02:26:37.881Z,4.90
2023-03-26T02:29:09.626Z,5.10
2023-03-26T02:31:40.003Z,4.70
2023-03-26T02:34:08.669Z,5.20
2023-03-26T02:36:39.022Z,4.90
2023-03-26T02:39:08.030Z,4.90
2023-03-26T02:41:39.159Z,5.10
2023-03-26T02:44:10.484Z,5.60
2023-03-26T02:46:57.739Z,5.40
2023-03-26T02:49:49.371Z,4.80
2023-03-26T02:52:24.098Z,4.40
2023-03-26T02:54:53.800Z,5.00
2023-03-26T02:57:25.748Z,4.80
2023-03-26T03:00:16.927Z,4.90
2023-03-26T03:03:05.527Z,4.50
2023-03-26T03:05:34.252Z,4.90
2023-03-26T03:08:50.172Z,5.00
2023-03-26T03:11:25.118Z,5.30
2023-03-26T03:13:54.515Z,5.30
2023-03-26T03:16:25.056Z,5.80
2023-03-26T03:18:58.108Z,6.20
2023-03-26T03:21:49.278Z,5.90
2023-03-26T03:24:18.840Z,5.80
2023-03-26T03:26:50.542Z,5.50
2023-03-26T03:29:36.628Z,5.50
2023-03-26T03:32:49.263Z,5.10
2023-03-26T03:35:21.351Z,6.10
2023-03-26T03:37:52.625Z,5.90
2023-03-26T03:40:21.408Z,6.20
2023-03-26T03:42:50.237Z,5.60
2023-03-26T03:45:26.203Z,4.70
2023-03-26T03:48:08.661Z,4.10
2023-03-26T03:50:41.313Z,4.10
2023-03-26T03:53:56.904Z,4.50
2023-03-26T03:57:09.045Z,4.00
2023-03-26T03:59:48.057Z,3.90
2023-03-26T04:02:26.873Z,4.00
2023-03-26T04:04:58.936Z,4.20
2023-03-26T04:07:33.217Z,4.00
2023-03-26T04:10:10.293Z,3.50
2023-03-26T04:12:57.634Z,3.80
2023-03-26T04:18:27.927Z,4.40
2023-03-26T04:21:02.579Z,4.20
2023-03-26T04:23:32.416Z,4.80
2023-03-26T04:26:10.670Z,4.20
2023-03-26T04:29:28.327Z,4.60
2023-03-26T04:31:59.387Z,4.70
2023-03-26T04:34:32.325Z,4.00
2023-03-26T04:37:21.393Z,4.50
2023-03-26T04:39:55.520Z,4.80
2023-03-26T04:42:46.498Z,4.60
2023-03-26T04:45:25.605Z,3.80
2023-03-26T04:47:58.646Z,3.50
2023-03-26T04:50:27.760Z,4.00
2023-03-26T04:52:58.162Z,3.20
2023-03-26T04:57:03.273Z,3.90
2023-03-26T04:59:37.859Z,3.30
2023-03-26T05:02:10.937Z,3.40
2023-03-26T05:04:48.661Z,3.60
2023-03-26T05:07:21.224Z,3.70
2023-03-26T05:09:52.658Z,3.50
2023-03-26T05:12:25.853Z,3.40
2023-03-26T05:15:17.001Z,3.00
2023-03-26T05:18:04.583Z,3.30
2023-03-26T05:20:39.728Z,3.10
2023-03-26T05:23:09.650Z,3.10
2023-03-26T05:25:41.516Z,2.80
2023-03-26T05:28:20.912Z,3.00
2023-03-26T05:30:55.820Z,2.90
2023-03-26T05:33:26.433Z,3.00
2023-03-26T05:36:09.625Z,2.50
2023-03-26T05:38:38.392Z,2.60
2023-03-26T05:41:10.842Z,2.30
2023-03-26T05:43:45.029Z,2.40
2023-03-26T05:46:20.546Z,2.10
2023-03-26T05:48:49.985Z,3.00
2023-03-26T05:53:58.082Z,2.30
2023-03-26T05:56:54.323Z,2.30
2023-03-26T06:00:16.688Z,1.90
2023-03-26T06:05:37.776Z,1.80
2023-03-26T06:08:13.542Z,1.80
2023-03-26T06:10:51.065Z,1.60
2023-03-26T06:13:19.910Z,1.50
2023-03-26T06:15:50.837Z,1.50
2023-03-26T06:18:34.921Z,1.60
2023-03-26T06:21:24.137Z,1.10
2023-03-26T06:24:08.564Z,1.30
2023-03-26T06:26:54.573Z,1.60
2023-03-26T06:29:49.751Z,1.20
2023-03-26T06:32:28.756Z,1.40
2023-03-26T06:35:07.328Z,1.70
2023-03-26T06:37:36.501Z,1.60
2023-03-26T06:40:06.197Z,1.50
2023-03-26T06:43:21.856Z,1.70
2023-03-26T06:46:08.121Z,1.30
2023-03-26T06:48:40.581Z,1.30
2023-03-26T06:51:32.589Z,1.70
2023-03-26T06:54:10.133Z,1.30
2023-03-26T06:57:38.296Z,1.20
2023-03-26T07:00:25.796Z,1.50
2023-03-26T07:03:53.385Z,1.10
2023-03-26T07:06:40.735Z,1.20
2023-03-26T07:09:30.637Z,1.20
2023-03-26T07:12:40.281Z,1.50
2023-03-26T07:15:29.088Z,1.60
2023-03-26T07:18:13.338Z,1.50
2023-03-26T07:20:46.308Z,1.70
2023-03-26T07:23:20.196Z,1.70
2023-03-26T07:25:59.122Z,1.70
2023-03-26T07:29:16.375Z,1.80
2023-03-26T07:32:59.261Z,2.00
2023-03-26T07:36:37.281Z,2.00
2023-03-26T07:40:14.092Z,2.80
2023-03-26T07:43:13.593Z,1.90
2023-03-26T07:46:03.096Z,2.70
2023-03-26T07:48:49.048Z,2.20
2023-03-26T07:51:58.988Z,2.30
2023-03-26T07:54:51.626Z,2.40
2023-03-26T07:58:17.112Z,2.10
2023-03-26T08:02:12.559Z,2.20
2023-03-26T08:05:06.031Z,2.50
2023-03-26T08:08:33.819Z,2.00
2023-03-26T08:11:50.528Z,1.90
2023-03-26T08:14:51.545Z,1.90
2023-03-26T08:17:54.583Z,2.00
2023-03-26T08:21:04.614Z,2.30
2023-03-26T08:23:54.128Z,2.00
2023-03-26T08:29:40.103Z,2.10
2023-03-26T08:32:17.721Z,2.00
2023-03-26T08:34:46.971Z,1.90
2023-03-26T08:39:45.398Z,1.80
2023-03-26T08:42:19.616Z,1.40
2023-03-26T08:45:29.528Z,1.50
2023-03-26T08:48:40.962Z,1.50
2023-03-26T08:51:28.852Z,1.70
2023-03-26T08:54:09.836Z,1.60
2023-03-26T08:57:19.667Z,1.30
2023-03-26T09:00:44.694Z,1.40
2023-03-26T09:03:47.410Z,1.50
2023-03-26T09:06:37.474Z,1.50
2023-03-26T09:09:24.777Z,1.30
2023-03-26T09:11:59.865Z,1.10
2023-03-26T09:14:47.048Z,1.40
2023-03-26T09:18:01.020Z,1.40
2023-03-26T09:20:54.812Z,1.20
2023-03-26T09:23:41.620Z,1.20
2023-03-26T09:26:46.772Z,1.20
2023-03-26T09:29:58.998Z,1.10
2023-03-26T09:38:26.898Z,1.40
2023-03-26T09:41:07.622Z,1.30
2023-03-26T09:44:01.237Z,1.40
2023-03-26T09:46:46.189Z,1.10
2023-03-26T09:49:25.116Z,1.20
2023-03-26T09:52:15.001Z,1.50
2023-03-26T09:55:02.328Z,1.40
2023-03-26T09:57:58.585Z,1.50
2023-03-26T10:01:14.915Z,1.40
2023-03-26T10:04:13.871Z,1.60
2023-03-26T10:07:09.049Z,1.30
2023-03-26T10:10:44.349Z,1.60
2023-03-26T10:13:53.592Z,1.30
2023-03-26T10:19:53.519Z,1.70
2023-03-26T10:22:55.496Z,1.50
2023-03-26T10:25:24.176Z,1.40
2023-03-26T10:28:36.482Z,1.40
2023-03-26T10:31:19.875Z,1.40
2023-03-26T10:34:07.192Z,1.50
2023-03-26T10:37:05.512Z,1.50
2023-03-26T10:40:27.649Z,1.60
2023-03-26T10:43:19.936Z,1.30
2023-03-26T10:46:04.488Z,1.30
2023-03-26T10:49:16.179Z,1.30
2023-03-26T10:51:55.055Z,1.20
2023-03-26T10:55:05.316Z,1.30
2023-03-26T10:57:50.202Z,1.10
2023-03-26T11:00:29.235Z,1.30
2023-03-26T11:03:25.873Z,1.40
2023-03-26T11:06:25.781Z,1.30
2023-03-26T11:09:06.264Z,1.30
2023-03-26T11:11:50.732Z,1.30
2023-03-26T11:15:07.150Z,1.20
2023-03-26T11:17:54.415Z,1.60
2023-03-26T11:20:42.002Z,1.50
2023-03-26T11:24:05.177Z,1.20
2023-03-26T11:27:14.505Z,1.30
2023-03-26T11:30:08.030Z,1.40
2023-03-26T11:32:54.547Z,1.30
2023-03-26T11:35:40.903Z,1.40
2023-03-26T11:38:26.629Z,1.90
2023-03-26T11:40:59.104Z,1.20
2023-03-26T11:44:26.273Z,1.40
2023-03-26T11:47:02.234Z,1.60
2023-03-26T11:49:31.205Z,1.40
2023-03-26T11:52:01.155Z,1.30
2023-03-26T11:54:30.338Z,1.30
2023-03-26T11:57:19.319Z,1.30
2023-03-26T12:00:18.625Z,1.40
2023-03-26T12:05:26.846Z,1.40
2023-03-26T12:08:04.496Z,1.40
2023-03-26T12:10:39.577Z,1.30
2023-03-26T12:13:35.895Z,1.40
2023-03-26T12:16:21.078Z,1.60
2023-03-26T12:19:22.461Z,1.30
2023-03-26T12:21:53.320Z,1.40
2023-03-26T12:24:32.285Z,1.90
2023-03-26T12:27:20.563Z,2.00
2023-03-26T12:30:00.285Z,1.70
2023-03-26T12:32:53.247Z,1.50
2023-03-26T12:35:31.195Z,1.50
2023-03-26T12:38:25.014Z,1.40
2023-03-26T12:42:52.741Z,1.20
2023-03-26T12:44:54.771Z,1.50
2023-03-26T12:47:59.157Z,1.50
2023-03-26T12:50:18.617Z,1.30
2023-03-26T12:53:12.709Z,1.90
2023-03-26T12:55:56.337Z,1.10
2023-03-26T12:59:12.030Z,0.90
2023-03-26T13:01:43.304Z,0.90
2023-03-26T13:04:49.223Z,0.90
2023-03-26T13:07:43.341Z,1.30
2023-03-26T13:10:33.188Z,1.50
2023-03-26T13:13:10.840Z,1.50
2023-03-26T13:15:46.712Z,1.80
2023-03-26T13:18:38.037Z,1.90
2023-03-26T13:24:06.529Z,2.00
2023-03-26T13:26:46.595Z,1.20
2023-03-26T13:29:23.850Z,1.20
2023-03-26T13:32:32.136Z,1.50
2023-03-26T13:35:47.288Z,1.20
2023-03-26T13:39:00.428Z,1.60
2023-03-26T13:42:02.299Z,1.40
2023-03-26T13:45:06.033Z,1.10
2023-03-26T13:47:41.424Z,0.90
2023-03-26T13:50:39.688Z,1.00
2023-03-26T13:53:22.950Z,0.70
2023-03-26T13:55:59.351Z,1.00
2023-03-26T13:58:47.826Z,1.10
2023-03-26T14:01:43.756Z,0.80
2023-03-26T14:04:40.957Z,1.00
2023-03-26T14:07:24.982Z,1.00
2023-03-26T14:10:26.102Z,0.80
2023-03-26T14:13:06.067Z,1.10
2023-03-26T14:16:06.747Z,1.00
2023-03-26T14:18:51.698Z,1.00
2023-03-26T14:21:50.588Z,1.00
2023-03-26T14:25:17.273Z,0.80
2023-03-26T14:28:13.408Z,0.70
2023-03-26T14:30:48.484Z,0.90
2023-03-26T14:33:30.593Z,0.70
2023-03-26T14:36:15.730Z,0.50
2023-03-26T14:39:13.387Z,1.00
2023-03-26T14:41:56.199Z,0.40
2023-03-26T14:44:30.931Z,0.40
2023-03-26T14:47:21.879Z,0.30
2023-03-26T14:50:21.810Z,0.40
2023-03-26T14:53:01.318Z,0.30
2023-03-26T14:55:54.350Z,0.40
2023-03-26T14:59:03.610Z,0.50
2023-03-26T15:02:09.831Z,0.40
2023-03-26T15:04:56.996Z,0.50
2023-03-26T15:07:52.831Z,0.60
2023-03-26T15:10:55.207Z,0.50
2023-03-26T15:14:31.612Z,0.90
2023-03-26T15:17:11.222Z,0.40
2023-03-26T15:20:27.932Z,0.50
2023-03-26T15:23:43.124Z,0.50
2023-03-26T15:26:45.670Z,0.60
2023-03-26T15:29:46.084Z,1.30
2023-03-26T15:32:37.211Z,0.70
2023-03-26T15:35:57.022Z,0.70
2023-03-26T15:38:28.984Z,0.70
2023-03-26T15:41:22.143Z,0.70
2023-03-26T15:44:23.462Z,0.70
2023-03-26T15:47:38.896Z,0.60
2023-03-26T15:50:22.368Z,0.80
2023-03-26T15:53:02.911Z,0.70
2023-03-26T15:55:56.242Z,0.60
2023-03-26T15:58:48.358Z,0.80
2023-03-26T16:01:48.737Z,0.90
2023-03-26T16:04:28.300Z,0.60
2023-03-26T16:07:12.373Z,0.90
2023-03-26T16:09:56.102Z,1.00
2023-03-26T16:12:54.076Z,0.90
2023-03-26T16:15:32.332Z,0.70
2023-03-26T16:18:17.322Z,0.70
2023-03-26T16:20:51.087Z,1.30
2023-03-26T16:23:47.192Z,1.60
2023-03-26T16:26:35.808Z,1.50
2023-03-26T16:29:26.377Z,2.00
2023-03-26T16:32:31.467Z,1.60
2023-03-26T16:35:15.854Z,1.60
2023-03-26T16:37:52.892Z,2.10
2023-03-26T16:40:33.196Z,1.60
2023-03-26T16:43:23.089Z,1.60
2023-03-26T16:46:26.630Z,1.70
2023-03-26T16:49:12.577Z,1.80
2023-03-26T16:52:28.503Z,1.80
2023-03-26T16:55:38.567Z,1.70
2023-03-26T16:58:43.602Z,2.30
2023-03-26T17:01:41.692Z,2.20
2023-03-26T17:04:20.731Z,2.30
2023-03-26T17:07:01.998Z,2.00
2023-03-26T17:09:46.796Z,2.40
2023-03-26T17:12:34.404Z,1.90
2023-03-26T17:15:21.412Z,2.20
2023-03-26T17:18:11.543Z,1.80
2023-03-26T17:20:59.936Z,2.10
2023-03-26T17:24:18.184Z,1.50
2023-03-26T17:27:34.493Z,1.40
2023-03-26T17:30:43.923Z,1.60
2023-03-26T17:33:27.280Z,1.60
2023-03-26T17:36:41.359Z,1.80
2023-03-26T17:39:24.672Z,2.00
2023-03-26T17:42:26.258Z,2.00
2023-03-26T17:44:59.638Z,2.30
2023-03-26T17:48:03.110Z,3.10
2023-03-26T17:50:59.716Z,2.80
2023-03-26T17:53:36.204Z,3.00
2023-03-26T17:56:14.288Z,2.70
2023-03-26T17:58:54.932Z,2.70
2023-03-26T18:01:39.419Z,2.70
2023-03-26T18:04:19.878Z,2.60
2023-03-26T18:07:14.448Z,2.90
2023-03-26T18:10:20.251Z,2.80
2023-03-26T18:13:08.714Z,2.50
2023-03-26T18:15:50.983Z,2.30
2023-03-26T18:18:34.908Z,2.70
2023-03-26T18:21:09.459Z,2.80
2023-03-26T18:23:45.970Z,2.60
2023-03-26T18:26:18.349Z,2.60
2023-03-26T18:29:09.456Z,2.40
2023-03-26T18:31:41.791Z,2.70
2023-03-26T18:34:19.271Z,3.20
2023-03-26T18:37:11.503Z,3.00
2023-03-26T18:40:12.561Z,2.80
2023-03-26T18:42:49.165Z,3.10
2023-03-26T18:45:35.120Z,3.40
2023-03-26T18:48:11.500Z,3.60
2023-03-26T18:50:43.429Z,3.60
2023-03-26T18:53:22.622Z,3.30
2023-03-26T18:55:52.149Z,2.80
2023-03-26T19:01:23.750Z,3.50
2023-03-26T19:03:54.746Z,3.20
2023-03-26T19:08:53.469Z,3.50
2023-03-26T19:11:22.482Z,4.00
2023-03-26T19:14:06.979Z,4.40
2023-03-26T19:16:37.392Z,5.00
2023-03-26T19:19:08.196Z,5.20
2023-03-26T19:21:41.802Z,4.70
2023-03-26T19:24:12.318Z,5.10
2023-03-26T19:26:41.442Z,4.80
2023-03-26T19:29:15.971Z,4.40
2023-03-26T19:31:44.636Z,4.70
2023-03-26T19:34:17.981Z,4.80
2023-03-26T19:37:01.952Z,5.10
2023-03-26T19:39:50.767Z,4.20
2023-03-26T19:42:27.349Z,4.40
2023-03-26T19:45:22.040Z,4.30
2023-03-26T19:48:03.677Z,4.20
2023-03-26T19:50:42.666Z,3.80
2023-03-26T19:53:20.515Z,4.20
2023-03-26T19:55:57.637Z,3.90
2023-03-26T19:58:28.022Z,4.50
2023-03-26T20:00:57.484Z,4.20
